Allentown, New Jersey
Current Conditions -  °F | °C
As of 11:58 AM on Friday 24 Oct 2014 (Local Time) from KWRI Reporting Station
Scattered Clouds Scattered Clouds  
Wind Chill: 59°   Ceiling: Unl
Heat Index: 59°   Visibility: 10mi
Dew Point: 45°   Wind: 12mph
Humidity: 59%   Direction: 310°NW
Pressure: 29.83"   Gusts: NA
Location:  40.18°N, 74.58°W
Report Text: KWRI 241558Z AUTO 31010KT 10SM SCT042 15/07 A2983 RMK AO2 PK WND 36026/1459 SLP105 T01510072
Loading
Personal Weather Stations






























Interactive Weather Map
Tropical Storm Tracking
New forecast layout! Learn more

10-Day Weather Forecast

Advertisements
Track Severe Weather on mobile